sensor_id;sensor_type;location;lat;lon;timestamp;P1;durP1;ratioP1;P2;durP2;ratioP2
71003;SDS011;59025;42.050;-8.660;2022-08-19T00:00:38;15.32;;;7.75;;
71003;SDS011;59025;42.050;-8.660;2022-08-19T00:03:06;14.63;;;6.13;;
71003;SDS011;59025;42.050;-8.660;2022-08-19T00:05:34;11.23;;;4.80;;
71003;SDS011;59025;42.050;-8.660;2022-08-19T00:08:03;14.05;;;6.95;;
71003;SDS011;59025;42.050;-8.660;2022-08-19T00:10:30;11.65;;;4.20;;
71003;SDS011;59025;42.050;-8.660;2022-08-19T00:12:59;8.65;;;4.10;;
71003;SDS011;59025;42.050;-8.660;2022-08-19T00:15:26;9.52;;;3.78;;
71003;SDS011;59025;42.050;-8.660;2022-08-19T00:17:54;11.93;;;5.30;;
71003;SDS011;59025;42.050;-8.660;2022-08-19T00:20:21;10.18;;;4.20;;
71003;SDS011;59025;42.050;-8.660;2022-08-19T00:22:49;7.40;;;3.53;;
71003;SDS011;59025;42.050;-8.660;2022-08-19T00:25:18;8.57;;;3.60;;
71003;SDS011;59025;42.050;-8.660;2022-08-19T00:27:46;7.45;;;3.42;;
71003;SDS011;59025;42.050;-8.660;2022-08-19T00:30:13;8.30;;;3.30;;
71003;SDS011;59025;42.050;-8.660;2022-08-19T00:32:41;7.88;;;3.40;;
71003;SDS011;59025;42.050;-8.660;2022-08-19T00:35:09;9.63;;;3.40;;
71003;SDS011;59025;42.050;-8.660;2022-08-19T00:37:37;8.13;;;3.00;;
71003;SDS011;59025;42.050;-8.660;2022-08-19T00:40:09;8.30;;;3.33;;
71003;SDS011;59025;42.050;-8.660;2022-08-19T00:42:40;8.53;;;3.10;;
71003;SDS011;59025;42.050;-8.660;2022-08-19T00:45:09;6.60;;;2.88;;
71003;SDS011;59025;42.050;-8.660;2022-08-19T00:47:39;7.18;;;2.33;;
71003;SDS011;59025;42.050;-8.660;2022-08-19T00:50:07;7.50;;;2.60;;
71003;SDS011;59025;42.050;-8.660;2022-08-19T00:52:37;7.32;;;2.67;;
71003;SDS011;59025;42.050;-8.660;2022-08-19T00:55:11;6.87;;;2.67;;
71003;SDS011;59025;42.050;-8.660;2022-08-19T00:57:47;9.57;;;2.92;;
71003;SDS011;59025;42.050;-8.660;2022-08-19T01:00:20;5.65;;;2.50;;
71003;SDS011;59025;42.050;-8.660;2022-08-19T01:02:49;8.05;;;2.00;;
71003;SDS011;59025;42.050;-8.660;2022-08-19T01:05:17;6.40;;;2.45;;
71003;SDS011;59025;42.050;-8.660;2022-08-19T01:07:48;4.63;;;2.17;;
71003;SDS011;59025;42.050;-8.660;2022-08-19T01:10:17;7.00;;;2.20;;
71003;SDS011;59025;42.050;-8.660;2022-08-19T01:12:49;6.93;;;2.00;;
71003;SDS011;59025;42.050;-8.660;2022-08-19T01:15:19;3.55;;;1.80;;
71003;SDS011;59025;42.050;-8.660;2022-08-19T01:17:49;6.30;;;2.20;;
71003;SDS011;59025;42.050;-8.660;2022-08-19T01:20:19;5.53;;;2.00;;
71003;SDS011;59025;42.050;-8.660;2022-08-19T01:22:51;5.30;;;2.08;;
71003;SDS011;59025;42.050;-8.660;2022-08-19T01:25:21;5.25;;;1.92;;
71003;SDS011;59025;42.050;-8.660;2022-08-19T01:27:51;6.45;;;1.90;;
71003;SDS011;59025;42.050;-8.660;2022-08-19T01:30:20;5.93;;;2.00;;
71003;SDS011;59025;42.050;-8.660;2022-08-19T01:32:49;8.07;;;1.83;;
71003;SDS011;59025;42.050;-8.660;2022-08-19T01:35:16;6.85;;;2.13;;
71003;SDS011;59025;42.050;-8.660;2022-08-19T01:37:46;6.10;;;1.92;;
71003;SDS011;59025;42.050;-8.660;2022-08-19T01:40:16;4.47;;;2.10;;
71003;SDS011;59025;42.050;-8.660;2022-08-19T01:42:45;5.78;;;1.95;;
71003;SDS011;59025;42.050;-8.660;2022-08-19T01:45:12;4.77;;;1.93;;
71003;SDS011;59025;42.050;-8.660;2022-08-19T01:47:40;5.90;;;2.17;;
71003;SDS011;59025;42.050;-8.660;2022-08-19T01:50:08;3.95;;;2.10;;
71003;SDS011;59025;42.050;-8.660;2022-08-19T01:52:37;6.85;;;2.20;;
71003;SDS011;59025;42.050;-8.660;2022-08-19T01:55:07;5.20;;;2.35;;
71003;SDS011;59025;42.050;-8.660;2022-08-19T01:57:38;7.87;;;2.30;;
71003;SDS011;59025;42.050;-8.660;2022-08-19T02:00:09;5.60;;;2.03;;
71003;SDS011;59025;42.050;-8.660;2022-08-19T02:02:39;6.32;;;2.15;;
71003;SDS011;59025;42.050;-8.660;2022-08-19T02:05:07;6.13;;;2.00;;
71003;SDS011;59025;42.050;-8.660;2022-08-19T02:07:35;5.75;;;1.85;;
71003;SDS011;59025;42.050;-8.660;2022-08-19T02:10:03;4.73;;;1.80;;
71003;SDS011;59025;42.050;-8.660;2022-08-19T02:12:31;7.68;;;2.08;;
71003;SDS011;59025;42.050;-8.660;2022-08-19T02:15:00;6.25;;;2.30;;
71003;SDS011;59025;42.050;-8.660;2022-08-19T02:17:28;7.43;;;2.40;;
71003;SDS011;59025;42.050;-8.660;2022-08-19T02:19:56;5.05;;;2.10;;
71003;SDS011;59025;42.050;-8.660;2022-08-19T02:22:24;6.97;;;2.23;;
71003;SDS011;59025;42.050;-8.660;2022-08-19T02:24:52;4.43;;;1.98;;
71003;SDS011;59025;42.050;-8.660;2022-08-19T02:27:19;6.65;;;2.40;;
71003;SDS011;59025;42.050;-8.660;2022-08-19T02:29:47;5.60;;;2.40;;
71003;SDS011;59025;42.050;-8.660;2022-08-19T02:32:17;5.78;;;2.10;;
71003;SDS011;59025;42.050;-8.660;2022-08-19T02:34:45;5.10;;;2.10;;
71003;SDS011;59025;42.050;-8.660;2022-08-19T02:37:12;7.55;;;2.40;;
71003;SDS011;59025;42.050;-8.660;2022-08-19T02:39:53;5.97;;;2.10;;
71003;SDS011;59025;42.050;-8.660;2022-08-19T02:42:21;3.92;;;1.85;;
71003;SDS011;59025;42.050;-8.660;2022-08-19T02:44:48;12.93;;;2.83;;
71003;SDS011;59025;42.050;-8.660;2022-08-19T02:47:18;5.87;;;2.03;;
71003;SDS011;59025;42.050;-8.660;2022-08-19T02:49:46;5.88;;;1.95;;
71003;SDS011;59025;42.050;-8.660;2022-08-19T02:52:14;6.40;;;2.50;;
71003;SDS011;59025;42.050;-8.660;2022-08-19T02:54:42;7.70;;;2.40;;
71003;SDS011;59025;42.050;-8.660;2022-08-19T02:57:10;6.90;;;2.22;;
71003;SDS011;59025;42.050;-8.660;2022-08-19T02:59:37;4.63;;;2.10;;
71003;SDS011;59025;42.050;-8.660;2022-08-19T03:02:05;7.65;;;2.00;;
71003;SDS011;59025;42.050;-8.660;2022-08-19T03:04:34;5.72;;;2.40;;
71003;SDS011;59025;42.050;-8.660;2022-08-19T03:07:01;5.38;;;2.17;;
71003;SDS011;59025;42.050;-8.660;2022-08-19T03:09:29;7.22;;;2.10;;
71003;SDS011;59025;42.050;-8.660;2022-08-19T03:11:56;7.27;;;2.57;;
71003;SDS011;59025;42.050;-8.660;2022-08-19T03:14:24;7.70;;;2.33;;
71003;SDS011;59025;42.050;-8.660;2022-08-19T03:16:51;6.63;;;2.42;;
71003;SDS011;59025;42.050;-8.660;2022-08-19T03:19:19;5.25;;;1.88;;
71003;SDS011;59025;42.050;-8.660;2022-08-19T03:21:49;5.30;;;2.25;;
71003;SDS011;59025;42.050;-8.660;2022-08-19T03:24:17;8.20;;;2.60;;
71003;SDS011;59025;42.050;-8.660;2022-08-19T03:26:48;6.40;;;2.25;;
71003;SDS011;59025;42.050;-8.660;2022-08-19T03:29:17;5.80;;;2.30;;
71003;SDS011;59025;42.050;-8.660;2022-08-19T03:31:46;6.85;;;2.50;;
71003;SDS011;59025;42.050;-8.660;2022-08-19T03:34:14;6.90;;;2.40;;
71003;SDS011;59025;42.050;-8.660;2022-08-19T03:36:44;5.33;;;2.23;;
71003;SDS011;59025;42.050;-8.660;2022-08-19T03:39:15;9.27;;;2.30;;
71003;SDS011;59025;42.050;-8.660;2022-08-19T03:41:43;9.00;;;2.55;;
71003;SDS011;59025;42.050;-8.660;2022-08-19T03:44:12;5.75;;;2.45;;
71003;SDS011;59025;42.050;-8.660;2022-08-19T03:46:40;5.65;;;2.42;;
71003;SDS011;59025;42.050;-8.660;2022-08-19T03:49:07;7.47;;;2.80;;
71003;SDS011;59025;42.050;-8.660;2022-08-19T03:51:35;7.50;;;2.25;;
71003;SDS011;59025;42.050;-8.660;2022-08-19T03:54:06;6.43;;;2.15;;
71003;SDS011;59025;42.050;-8.660;2022-08-19T03:56:37;6.32;;;2.42;;
71003;SDS011;59025;42.050;-8.660;2022-08-19T03:59:06;6.97;;;2.28;;
71003;SDS011;59025;42.050;-8.660;2022-08-19T04:01:35;5.43;;;2.17;;
71003;SDS011;59025;42.050;-8.660;2022-08-19T04:04:03;6.95;;;2.53;;
71003;SDS011;59025;42.050;-8.660;2022-08-19T04:06:31;4.30;;;1.98;;
71003;SDS011;59025;42.050;-8.660;2022-08-19T04:09:01;8.55;;;2.42;;
71003;SDS011;59025;42.050;-8.660;2022-08-19T04:11:31;18.63;;;3.72;;
71003;SDS011;59025;42.050;-8.660;2022-08-19T04:14:02;6.80;;;2.43;;
71003;SDS011;59025;42.050;-8.660;2022-08-19T04:16:30;8.10;;;2.63;;
71003;SDS011;59025;42.050;-8.660;2022-08-19T04:18:59;7.90;;;2.70;;
71003;SDS011;59025;42.050;-8.660;2022-08-19T04:21:28;5.22;;;2.22;;
71003;SDS011;59025;42.050;-8.660;2022-08-19T04:23:56;5.78;;;2.85;;
71003;SDS011;59025;42.050;-8.660;2022-08-19T04:26:24;6.67;;;2.60;;
71003;SDS011;59025;42.050;-8.660;2022-08-19T04:28:54;7.20;;;2.35;;
71003;SDS011;59025;42.050;-8.660;2022-08-19T04:31:23;7.30;;;2.60;;
71003;SDS011;59025;42.050;-8.660;2022-08-19T04:33:53;6.80;;;2.47;;
71003;SDS011;59025;42.050;-8.660;2022-08-19T04:36:22;5.57;;;2.53;;
71003;SDS011;59025;42.050;-8.660;2022-08-19T04:38:53;7.07;;;2.40;;
71003;SDS011;59025;42.050;-8.660;2022-08-19T04:41:22;8.20;;;2.30;;
71003;SDS011;59025;42.050;-8.660;2022-08-19T04:44:07;5.60;;;2.55;;
71003;SDS011;59025;42.050;-8.660;2022-08-19T04:46:36;7.60;;;2.80;;
71003;SDS011;59025;42.050;-8.660;2022-08-19T04:49:04;7.50;;;2.72;;
71003;SDS011;59025;42.050;-8.660;2022-08-19T04:51:33;7.40;;;2.40;;
71003;SDS011;59025;42.050;-8.660;2022-08-19T04:54:01;5.35;;;2.15;;
71003;SDS011;59025;42.050;-8.660;2022-08-19T04:56:29;8.27;;;2.92;;
71003;SDS011;59025;42.050;-8.660;2022-08-19T04:58:57;6.18;;;2.40;;
71003;SDS011;59025;42.050;-8.660;2022-08-19T05:01:28;6.22;;;2.78;;
71003;SDS011;59025;42.050;-8.660;2022-08-19T05:03:59;8.27;;;2.30;;
71003;SDS011;59025;42.050;-8.660;2022-08-19T05:06:27;7.97;;;2.90;;
71003;SDS011;59025;42.050;-8.660;2022-08-19T05:08:58;8.90;;;3.00;;
71003;SDS011;59025;42.050;-8.660;2022-08-19T05:11:26;7.95;;;2.78;;
71003;SDS011;59025;42.050;-8.660;2022-08-19T05:13:55;6.30;;;2.75;;
71003;SDS011;59025;42.050;-8.660;2022-08-19T05:16:23;7.30;;;2.33;;
71003;SDS011;59025;42.050;-8.660;2022-08-19T05:18:51;7.88;;;2.90;;
71003;SDS011;59025;42.050;-8.660;2022-08-19T05:21:38;7.43;;;2.88;;
71003;SDS011;59025;42.050;-8.660;2022-08-19T05:24:24;7.65;;;3.25;;
71003;SDS011;59025;42.050;-8.660;2022-08-19T05:26:52;6.50;;;2.72;;
71003;SDS011;59025;42.050;-8.660;2022-08-19T05:29:23;6.43;;;2.17;;
71003;SDS011;59025;42.050;-8.660;2022-08-19T05:31:53;7.88;;;2.60;;
71003;SDS011;59025;42.050;-8.660;2022-08-19T05:34:22;5.65;;;2.55;;
71003;SDS011;59025;42.050;-8.660;2022-08-19T05:36:53;7.47;;;2.97;;
71003;SDS011;59025;42.050;-8.660;2022-08-19T05:39:23;8.23;;;2.65;;
71003;SDS011;59025;42.050;-8.660;2022-08-19T05:41:52;8.87;;;2.70;;
71003;SDS011;59025;42.050;-8.660;2022-08-19T05:44:23;8.98;;;2.92;;
71003;SDS011;59025;42.050;-8.660;2022-08-19T05:46:51;5.68;;;2.67;;
71003;SDS011;59025;42.050;-8.660;2022-08-19T05:49:20;8.68;;;2.97;;
71003;SDS011;59025;42.050;-8.660;2022-08-19T05:51:50;9.00;;;3.25;;
71003;SDS011;59025;42.050;-8.660;2022-08-19T05:54:19;7.67;;;2.73;;
71003;SDS011;59025;42.050;-8.660;2022-08-19T05:56:48;9.82;;;3.17;;
71003;SDS011;59025;42.050;-8.660;2022-08-19T05:59:16;6.95;;;2.70;;
71003;SDS011;59025;42.050;-8.660;2022-08-19T06:01:45;7.40;;;2.90;;
71003;SDS011;59025;42.050;-8.660;2022-08-19T06:04:15;8.30;;;2.80;;
71003;SDS011;59025;42.050;-8.660;2022-08-19T06:06:44;6.63;;;3.03;;
71003;SDS011;59025;42.050;-8.660;2022-08-19T06:09:11;9.88;;;2.83;;
71003;SDS011;59025;42.050;-8.660;2022-08-19T06:11:41;11.90;;;2.85;;
71003;SDS011;59025;42.050;-8.660;2022-08-19T06:14:11;6.47;;;2.47;;
71003;SDS011;59025;42.050;-8.660;2022-08-19T06:16:41;6.20;;;2.67;;
71003;SDS011;59025;42.050;-8.660;2022-08-19T06:19:12;6.53;;;2.50;;
71003;SDS011;59025;42.050;-8.660;2022-08-19T06:21:43;6.18;;;2.55;;
71003;SDS011;59025;42.050;-8.660;2022-08-19T06:24:13;6.65;;;2.67;;
71003;SDS011;59025;42.050;-8.660;2022-08-19T06:26:45;5.55;;;2.30;;
71003;SDS011;59025;42.050;-8.660;2022-08-19T06:29:15;7.07;;;2.58;;
71003;SDS011;59025;42.050;-8.660;2022-08-19T06:31:44;6.20;;;2.40;;
71003;SDS011;59025;42.050;-8.660;2022-08-19T06:34:14;5.10;;;2.03;;
71003;SDS011;59025;42.050;-8.660;2022-08-19T06:36:43;7.32;;;3.60;;
71003;SDS011;59025;42.050;-8.660;2022-08-19T06:39:13;8.00;;;2.72;;
71003;SDS011;59025;42.050;-8.660;2022-08-19T06:41:46;6.25;;;2.55;;
71003;SDS011;59025;42.050;-8.660;2022-08-19T06:44:15;7.67;;;2.43;;
71003;SDS011;59025;42.050;-8.660;2022-08-19T06:46:42;7.90;;;2.63;;
71003;SDS011;59025;42.050;-8.660;2022-08-19T06:49:10;5.85;;;2.50;;
71003;SDS011;59025;42.050;-8.660;2022-08-19T06:51:39;9.38;;;2.53;;
71003;SDS011;59025;42.050;-8.660;2022-08-19T06:54:09;6.72;;;2.78;;
71003;SDS011;59025;42.050;-8.660;2022-08-19T06:56:37;6.17;;;3.10;;
71003;SDS011;59025;42.050;-8.660;2022-08-19T06:59:06;5.20;;;2.78;;
71003;SDS011;59025;42.050;-8.660;2022-08-19T07:01:36;5.85;;;2.53;;
71003;SDS011;59025;42.050;-8.660;2022-08-19T07:04:05;7.00;;;2.63;;
71003;SDS011;59025;42.050;-8.660;2022-08-19T07:06:34;6.40;;;3.17;;
71003;SDS011;59025;42.050;-8.660;2022-08-19T07:09:02;5.77;;;2.57;;
71003;SDS011;59025;42.050;-8.660;2022-08-19T07:11:31;6.85;;;2.97;;
71003;SDS011;59025;42.050;-8.660;2022-08-19T07:13:59;8.57;;;2.83;;
71003;SDS011;59025;42.050;-8.660;2022-08-19T07:16:28;5.60;;;2.47;;
71003;SDS011;59025;42.050;-8.660;2022-08-19T07:18:56;5.25;;;2.30;;
71003;SDS011;59025;42.050;-8.660;2022-08-19T07:21:25;5.07;;;2.30;;
71003;SDS011;59025;42.050;-8.660;2022-08-19T07:23:56;7.50;;;2.65;;
71003;SDS011;59025;42.050;-8.660;2022-08-19T07:26:26;6.53;;;3.05;;
71003;SDS011;59025;42.050;-8.660;2022-08-19T07:28:56;6.78;;;2.90;;
71003;SDS011;59025;42.050;-8.660;2022-08-19T07:31:25;6.97;;;2.90;;
71003;SDS011;59025;42.050;-8.660;2022-08-19T07:33:55;5.50;;;2.70;;
71003;SDS011;59025;42.050;-8.660;2022-08-19T07:36:24;5.80;;;2.80;;
71003;SDS011;59025;42.050;-8.660;2022-08-19T07:38:55;4.05;;;2.42;;
71003;SDS011;59025;42.050;-8.660;2022-08-19T07:41:24;6.50;;;2.88;;
71003;SDS011;59025;42.050;-8.660;2022-08-19T07:43:56;7.53;;;3.25;;
71003;SDS011;59025;42.050;-8.660;2022-08-19T07:46:30;7.63;;;3.10;;
71003;SDS011;59025;42.050;-8.660;2022-08-19T07:48:58;10.02;;;3.20;;
71003;SDS011;59025;42.050;-8.660;2022-08-19T07:51:27;6.85;;;3.30;;
71003;SDS011;59025;42.050;-8.660;2022-08-19T07:53:55;5.10;;;2.65;;
71003;SDS011;59025;42.050;-8.660;2022-08-19T07:56:22;5.85;;;2.80;;
71003;SDS011;59025;42.050;-8.660;2022-08-19T07:58:50;6.20;;;2.73;;
71003;SDS011;59025;42.050;-8.660;2022-08-19T08:01:20;8.45;;;2.88;;
71003;SDS011;59025;42.050;-8.660;2022-08-19T08:03:51;6.60;;;3.00;;
71003;SDS011;59025;42.050;-8.660;2022-08-19T08:06:37;6.15;;;3.08;;
71003;SDS011;59025;42.050;-8.660;2022-08-19T08:09:23;6.93;;;3.20;;
71003;SDS011;59025;42.050;-8.660;2022-08-19T08:11:53;5.60;;;2.70;;
71003;SDS011;59025;42.050;-8.660;2022-08-19T08:14:23;9.77;;;2.72;;
71003;SDS011;59025;42.050;-8.660;2022-08-19T08:16:53;6.10;;;2.92;;
71003;SDS011;59025;42.050;-8.660;2022-08-19T08:19:23;8.38;;;3.17;;
71003;SDS011;59025;42.050;-8.660;2022-08-19T08:21:52;6.75;;;2.90;;
71003;SDS011;59025;42.050;-8.660;2022-08-19T08:24:20;5.83;;;2.77;;
71003;SDS011;59025;42.050;-8.660;2022-08-19T08:26:48;6.72;;;3.03;;
71003;SDS011;59025;42.050;-8.660;2022-08-19T08:29:15;8.25;;;3.10;;
71003;SDS011;59025;42.050;-8.660;2022-08-19T08:31:44;5.22;;;3.03;;
71003;SDS011;59025;42.050;-8.660;2022-08-19T08:34:13;7.03;;;3.20;;
71003;SDS011;59025;42.050;-8.660;2022-08-19T08:36:43;6.97;;;3.13;;
71003;SDS011;59025;42.050;-8.660;2022-08-19T08:39:13;6.63;;;3.10;;
71003;SDS011;59025;42.050;-8.660;2022-08-19T08:41:44;6.03;;;2.90;;
71003;SDS011;59025;42.050;-8.660;2022-08-19T08:44:20;5.32;;;2.70;;
71003;SDS011;59025;42.050;-8.660;2022-08-19T08:46:49;5.35;;;2.72;;
71003;SDS011;59025;42.050;-8.660;2022-08-19T08:49:24;5.97;;;2.70;;
71003;SDS011;59025;42.050;-8.660;2022-08-19T08:51:59;6.40;;;2.75;;
71003;SDS011;59025;42.050;-8.660;2022-08-19T08:54:30;5.95;;;2.65;;
71003;SDS011;59025;42.050;-8.660;2022-08-19T08:57:03;5.63;;;3.00;;
71003;SDS011;59025;42.050;-8.660;2022-08-19T08:59:38;5.78;;;3.00;;
71003;SDS011;59025;42.050;-8.660;2022-08-19T09:02:08;7.53;;;3.27;;
71003;SDS011;59025;42.050;-8.660;2022-08-19T09:04:36;7.25;;;3.00;;
71003;SDS011;59025;42.050;-8.660;2022-08-19T09:07:26;6.60;;;3.28;;
71003;SDS011;59025;42.050;-8.660;2022-08-19T09:10:07;6.93;;;2.97;;
71003;SDS011;59025;42.050;-8.660;2022-08-19T09:12:43;4.95;;;2.83;;
71003;SDS011;59025;42.050;-8.660;2022-08-19T09:15:17;8.00;;;2.90;;
71003;SDS011;59025;42.050;-8.660;2022-08-19T09:17:48;5.72;;;3.00;;
71003;SDS011;59025;42.050;-8.660;2022-08-19T09:20:18;6.80;;;3.10;;
71003;SDS011;59025;42.050;-8.660;2022-08-19T09:22:48;6.43;;;3.20;;
71003;SDS011;59025;42.050;-8.660;2022-08-19T09:25:17;5.80;;;2.83;;
71003;SDS011;59025;42.050;-8.660;2022-08-19T09:27:47;8.63;;;2.50;;
71003;SDS011;59025;42.050;-8.660;2022-08-19T09:30:17;5.40;;;2.65;;
71003;SDS011;59025;42.050;-8.660;2022-08-19T09:32:48;10.25;;;3.00;;
71003;SDS011;59025;42.050;-8.660;2022-08-19T09:35:17;4.35;;;2.70;;
71003;SDS011;59025;42.050;-8.660;2022-08-19T09:37:49;4.95;;;2.90;;
71003;SDS011;59025;42.050;-8.660;2022-08-19T09:40:17;4.80;;;2.70;;
71003;SDS011;59025;42.050;-8.660;2022-08-19T09:42:45;7.80;;;3.42;;
71003;SDS011;59025;42.050;-8.660;2022-08-19T09:45:13;7.13;;;2.90;;
71003;SDS011;59025;42.050;-8.660;2022-08-19T09:47:42;6.00;;;2.92;;
71003;SDS011;59025;42.050;-8.660;2022-08-19T09:50:10;6.93;;;2.92;;
71003;SDS011;59025;42.050;-8.660;2022-08-19T09:52:38;7.60;;;2.93;;
71003;SDS011;59025;42.050;-8.660;2022-08-19T09:55:09;5.57;;;2.70;;
71003;SDS011;59025;42.050;-8.660;2022-08-19T09:57:37;7.07;;;3.50;;
71003;SDS011;59025;42.050;-8.660;2022-08-19T10:00:06;7.57;;;2.88;;
71003;SDS011;59025;42.050;-8.660;2022-08-19T10:02:35;7.38;;;2.80;;
71003;SDS011;59025;42.050;-8.660;2022-08-19T10:05:03;6.33;;;2.20;;
71003;SDS011;59025;42.050;-8.660;2022-08-19T10:07:49;5.07;;;2.78;;
71003;SDS011;59025;42.050;-8.660;2022-08-19T10:10:18;6.05;;;2.67;;
71003;SDS011;59025;42.050;-8.660;2022-08-19T10:12:45;9.60;;;2.80;;
71003;SDS011;59025;42.050;-8.660;2022-08-19T10:15:13;6.20;;;2.80;;
71003;SDS011;59025;42.050;-8.660;2022-08-19T10:17:41;5.17;;;3.30;;
71003;SDS011;59025;42.050;-8.660;2022-08-19T10:20:09;6.13;;;3.00;;
71003;SDS011;59025;42.050;-8.660;2022-08-19T10:22:37;6.32;;;2.80;;
71003;SDS011;59025;42.050;-8.660;2022-08-19T10:25:05;7.75;;;2.88;;
71003;SDS011;59025;42.050;-8.660;2022-08-19T10:27:35;5.50;;;3.15;;
71003;SDS011;59025;42.050;-8.660;2022-08-19T10:30:03;6.93;;;2.60;;
71003;SDS011;59025;42.050;-8.660;2022-08-19T10:32:31;5.20;;;2.50;;
71003;SDS011;59025;42.050;-8.660;2022-08-19T10:34:59;6.38;;;2.90;;
71003;SDS011;59025;42.050;-8.660;2022-08-19T10:37:26;6.03;;;2.55;;
71003;SDS011;59025;42.050;-8.660;2022-08-19T10:39:55;6.55;;;2.70;;
71003;SDS011;59025;42.050;-8.660;2022-08-19T10:42:23;9.13;;;2.90;;
71003;SDS011;59025;42.050;-8.660;2022-08-19T10:44:52;6.28;;;2.67;;
71003;SDS011;59025;42.050;-8.660;2022-08-19T10:47:20;4.57;;;2.65;;
71003;SDS011;59025;42.050;-8.660;2022-08-19T10:49:48;6.30;;;2.83;;
71003;SDS011;59025;42.050;-8.660;2022-08-19T10:52:33;5.95;;;2.63;;
71003;SDS011;59025;42.050;-8.660;2022-08-19T10:55:01;7.73;;;2.43;;
71003;SDS011;59025;42.050;-8.660;2022-08-19T10:57:46;4.95;;;2.58;;
71003;SDS011;59025;42.050;-8.660;2022-08-19T11:00:16;6.20;;;2.60;;
71003;SDS011;59025;42.050;-8.660;2022-08-19T11:02:43;6.93;;;2.45;;
71003;SDS011;59025;42.050;-8.660;2022-08-19T11:05:11;5.20;;;2.63;;
71003;SDS011;59025;42.050;-8.660;2022-08-19T11:07:40;6.73;;;2.60;;
71003;SDS011;59025;42.050;-8.660;2022-08-19T11:10:09;5.40;;;2.70;;
71003;SDS011;59025;42.050;-8.660;2022-08-19T11:12:38;5.22;;;2.50;;
71003;SDS011;59025;42.050;-8.660;2022-08-19T11:15:07;6.00;;;2.63;;
71003;SDS011;59025;42.050;-8.660;2022-08-19T11:17:37;5.45;;;2.53;;
71003;SDS011;59025;42.050;-8.660;2022-08-19T11:20:09;6.47;;;2.47;;
71003;SDS011;59025;42.050;-8.660;2022-08-19T11:22:37;6.60;;;2.45;;
71003;SDS011;59025;42.050;-8.660;2022-08-19T11:25:05;4.55;;;2.47;;
71003;SDS011;59025;42.050;-8.660;2022-08-19T11:27:37;3.30;;;2.33;;
71003;SDS011;59025;42.050;-8.660;2022-08-19T11:30:08;4.95;;;2.58;;
71003;SDS011;59025;42.050;-8.660;2022-08-19T11:32:38;3.10;;;2.10;;
71003;SDS011;59025;42.050;-8.660;2022-08-19T11:35:07;5.85;;;2.28;;
71003;SDS011;59025;42.050;-8.660;2022-08-19T11:37:36;4.03;;;2.35;;
71003;SDS011;59025;42.050;-8.660;2022-08-19T11:40:05;9.82;;;2.85;;
71003;SDS011;59025;42.050;-8.660;2022-08-19T11:42:33;5.35;;;2.60;;
71003;SDS011;59025;42.050;-8.660;2022-08-19T11:45:18;4.40;;;2.30;;
71003;SDS011;59025;42.050;-8.660;2022-08-19T11:47:47;5.57;;;2.25;;
71003;SDS011;59025;42.050;-8.660;2022-08-19T11:50:14;5.05;;;2.45;;
71003;SDS011;59025;42.050;-8.660;2022-08-19T11:52:42;3.33;;;2.05;;
71003;SDS011;59025;42.050;-8.660;2022-08-19T11:55:10;4.15;;;2.35;;
71003;SDS011;59025;42.050;-8.660;2022-08-19T11:57:38;4.93;;;2.50;;
71003;SDS011;59025;42.050;-8.660;2022-08-19T12:00:09;5.75;;;2.08;;
71003;SDS011;59025;42.050;-8.660;2022-08-19T12:02:38;5.75;;;2.50;;
71003;SDS011;59025;42.050;-8.660;2022-08-19T12:05:07;3.67;;;2.08;;
71003;SDS011;59025;42.050;-8.660;2022-08-19T12:07:35;4.15;;;2.20;;
71003;SDS011;59025;42.050;-8.660;2022-08-19T12:10:03;5.20;;;2.10;;
71003;SDS011;59025;42.050;-8.660;2022-08-19T12:12:30;5.10;;;2.30;;
71003;SDS011;59025;42.050;-8.660;2022-08-19T12:14:58;5.00;;;2.13;;
71003;SDS011;59025;42.050;-8.660;2022-08-19T12:17:26;5.20;;;2.15;;
71003;SDS011;59025;42.050;-8.660;2022-08-19T12:19:54;5.97;;;2.13;;
71003;SDS011;59025;42.050;-8.660;2022-08-19T12:22:23;7.60;;;2.10;;
71003;SDS011;59025;42.050;-8.660;2022-08-19T12:24:50;5.40;;;2.50;;
71003;SDS011;59025;42.050;-8.660;2022-08-19T12:27:19;4.60;;;2.00;;
71003;SDS011;59025;42.050;-8.660;2022-08-19T12:29:46;4.30;;;1.92;;
71003;SDS011;59025;42.050;-8.660;2022-08-19T12:32:14;4.97;;;2.38;;
71003;SDS011;59025;42.050;-8.660;2022-08-19T12:34:42;5.27;;;2.00;;
71003;SDS011;59025;42.050;-8.660;2022-08-19T12:37:09;5.28;;;1.90;;
71003;SDS011;59025;42.050;-8.660;2022-08-19T12:39:40;4.90;;;2.05;;
71003;SDS011;59025;42.050;-8.660;2022-08-19T12:42:09;5.47;;;1.73;;
71003;SDS011;59025;42.050;-8.660;2022-08-19T12:44:37;4.78;;;2.00;;
71003;SDS011;59025;42.050;-8.660;2022-08-19T12:47:06;4.43;;;1.80;;
71003;SDS011;59025;42.050;-8.660;2022-08-19T12:49:35;3.75;;;1.67;;
71003;SDS011;59025;42.050;-8.660;2022-08-19T12:52:05;3.75;;;1.70;;
71003;SDS011;59025;42.050;-8.660;2022-08-19T12:54:34;5.03;;;1.50;;
71003;SDS011;59025;42.050;-8.660;2022-08-19T12:57:06;4.75;;;1.88;;
71003;SDS011;59025;42.050;-8.660;2022-08-19T12:59:34;7.57;;;2.00;;
71003;SDS011;59025;42.050;-8.660;2022-08-19T13:02:02;4.38;;;1.60;;
71003;SDS011;59025;42.050;-8.660;2022-08-19T13:04:30;2.78;;;1.45;;
71003;SDS011;59025;42.050;-8.660;2022-08-19T13:07:00;2.83;;;1.77;;
71003;SDS011;59025;42.050;-8.660;2022-08-19T13:09:28;4.32;;;1.45;;
71003;SDS011;59025;42.050;-8.660;2022-08-19T13:11:55;5.57;;;1.80;;
71003;SDS011;59025;42.050;-8.660;2022-08-19T13:14:24;2.95;;;1.52;;
71003;SDS011;59025;42.050;-8.660;2022-08-19T13:16:52;2.60;;;1.42;;
71003;SDS011;59025;42.050;-8.660;2022-08-19T13:19:20;3.17;;;1.50;;
71003;SDS011;59025;42.050;-8.660;2022-08-19T13:21:49;3.00;;;1.55;;
71003;SDS011;59025;42.050;-8.660;2022-08-19T13:24:17;3.37;;;1.50;;
71003;SDS011;59025;42.050;-8.660;2022-08-19T13:26:45;2.80;;;1.40;;
71003;SDS011;59025;42.050;-8.660;2022-08-19T13:29:13;5.03;;;1.50;;
71003;SDS011;59025;42.050;-8.660;2022-08-19T13:31:59;5.75;;;1.30;;
71003;SDS011;59025;42.050;-8.660;2022-08-19T13:34:58;4.00;;;1.70;;
71003;SDS011;59025;42.050;-8.660;2022-08-19T13:37:25;3.23;;;1.63;;
71003;SDS011;59025;42.050;-8.660;2022-08-19T13:40:07;3.30;;;1.67;;
71003;SDS011;59025;42.050;-8.660;2022-08-19T13:42:38;5.05;;;1.85;;
71003;SDS011;59025;42.050;-8.660;2022-08-19T13:45:06;4.90;;;2.17;;
71003;SDS011;59025;42.050;-8.660;2022-08-19T13:47:35;4.28;;;1.80;;
71003;SDS011;59025;42.050;-8.660;2022-08-19T13:50:04;4.93;;;2.20;;
71003;SDS011;59025;42.050;-8.660;2022-08-19T13:52:32;3.80;;;1.92;;
71003;SDS011;59025;42.050;-8.660;2022-08-19T13:55:00;4.22;;;2.13;;
71003;SDS011;59025;42.050;-8.660;2022-08-19T13:57:27;3.58;;;2.08;;
71003;SDS011;59025;42.050;-8.660;2022-08-19T13:59:55;7.05;;;2.20;;
71003;SDS011;59025;42.050;-8.660;2022-08-19T14:02:24;7.97;;;2.20;;
71003;SDS011;59025;42.050;-8.660;2022-08-19T14:04:54;3.97;;;2.15;;
71003;SDS011;59025;42.050;-8.660;2022-08-19T14:07:21;4.07;;;2.22;;
71003;SDS011;59025;42.050;-8.660;2022-08-19T14:09:49;6.55;;;2.70;;
71003;SDS011;59025;42.050;-8.660;2022-08-19T14:12:18;5.63;;;2.40;;
71003;SDS011;59025;42.050;-8.660;2022-08-19T14:14:47;5.57;;;2.50;;
71003;SDS011;59025;42.050;-8.660;2022-08-19T14:17:14;4.70;;;2.30;;
71003;SDS011;59025;42.050;-8.660;2022-08-19T14:19:42;4.57;;;2.50;;
71003;SDS011;59025;42.050;-8.660;2022-08-19T14:22:11;7.38;;;2.90;;
71003;SDS011;59025;42.050;-8.660;2022-08-19T14:24:39;7.88;;;2.72;;
71003;SDS011;59025;42.050;-8.660;2022-08-19T14:27:07;4.17;;;2.40;;
71003;SDS011;59025;42.050;-8.660;2022-08-19T14:29:35;4.53;;;2.40;;
71003;SDS011;59025;42.050;-8.660;2022-08-19T14:32:03;4.78;;;2.42;;
71003;SDS011;59025;42.050;-8.660;2022-08-19T14:34:30;4.32;;;2.20;;
71003;SDS011;59025;42.050;-8.660;2022-08-19T14:36:59;6.35;;;2.60;;
71003;SDS011;59025;42.050;-8.660;2022-08-19T14:39:29;5.73;;;2.00;;
71003;SDS011;59025;42.050;-8.660;2022-08-19T14:41:56;5.32;;;2.33;;
71003;SDS011;59025;42.050;-8.660;2022-08-19T14:44:24;6.15;;;2.40;;
71003;SDS011;59025;42.050;-8.660;2022-08-19T14:46:53;4.53;;;2.05;;